Weather at Madrid–Torrejón Airport / Torrejón Air Base

Public forecast

Using degrees Celsius for public forecast. Weather courtesy of forecast.io.

Current aviation weather report (METAR) for Madrid–Torrejón Airport / Torrejón Air Base

2024/06/16 03:00 (retrieved 13 minutes ago)

LETO 160300Z 04004KT CAVOK 13/04 Q1015 NOSIG

Closest aviation forecast (TAF) to Madrid–Torrejón Airport / Torrejón Air Base

Forecast is more than 6 hours old.

Closest forecast is Alcantarilla Air Base, 184.2 nm (341.1 km) SE.

2024/06/15 18:53 Ammendment (retrieved 8 hours ago)

TAF AMD LERI 151845Z 1518/1618 VRB02KT CAVOK TX30/1615Z TN17/1605Z PROB30 TEMPO 1518/1524 04010KT BECMG 1612/1614 16010KT PROB30 1518/1520 2000 TSRA FEW030CB